createdAt,value
2022-12-08T00:02:04.323Z,13.67
2022-12-08T00:05:25.070Z,13.61
2022-12-08T00:08:45.895Z,13.57
2022-12-08T00:11:49.609Z,13.55
2022-12-08T00:14:51.750Z,13.57
2022-12-08T00:17:53.813Z,13.47
2022-12-08T00:20:57.238Z,13.52
2022-12-08T00:23:59.417Z,13.48
2022-12-08T00:27:02.860Z,13.59
2022-12-08T00:30:05.953Z,13.57
2022-12-08T00:33:08.211Z,13.53
2022-12-08T00:36:13.212Z,13.54
2022-12-08T00:39:16.876Z,13.46
2022-12-08T00:42:20.228Z,13.52
2022-12-08T00:45:22.339Z,13.41
2022-12-08T00:48:24.456Z,13.37
2022-12-08T00:51:26.568Z,13.34
2022-12-08T00:54:28.759Z,13.37
2022-12-08T00:57:31.175Z,13.33
2022-12-08T01:00:33.333Z,13.39
2022-12-08T01:03:35.474Z,13.35
2022-12-08T01:06:38.494Z,13.24
2022-12-08T01:09:40.668Z,13.37
2022-12-08T01:12:42.951Z,13.33
2022-12-08T01:15:44.845Z,13.40
2022-12-08T01:18:47.697Z,13.41
2022-12-08T01:21:49.820Z,13.36
2022-12-08T01:24:52.018Z,13.41
2022-12-08T01:27:54.205Z,13.42
2022-12-08T01:30:56.605Z,13.43
2022-12-08T01:33:58.909Z,13.28
2022-12-08T01:37:01.075Z,13.32
2022-12-08T01:40:03.768Z,13.28
2022-12-08T01:43:06.874Z,13.35
2022-12-08T01:46:08.982Z,13.27
2022-12-08T01:49:20.956Z,13.38
2022-12-08T01:52:39.372Z,13.29
2022-12-08T01:55:56.030Z,13.32
2022-12-08T01:58:58.609Z,13.28
2022-12-08T02:02:01.113Z,13.32
2022-12-08T02:05:04.077Z,13.32
2022-12-08T02:08:12.787Z,13.33
2022-12-08T02:11:14.895Z,13.33
2022-12-08T02:14:17.233Z,13.33
2022-12-08T02:17:31.435Z,13.36
2022-12-08T02:20:58.230Z,13.49
2022-12-08T02:24:15.086Z,13.55
2022-12-08T02:27:45.281Z,13.62
2022-12-08T02:31:13.419Z,13.68
2022-12-08T02:34:30.379Z,13.73
2022-12-08T02:37:40.131Z,13.96
2022-12-08T02:40:44.904Z,13.94
2022-12-08T02:43:54.899Z,13.96
2022-12-08T02:47:02.422Z,13.96
2022-12-08T02:50:05.720Z,13.70
2022-12-08T02:56:15.807Z,13.51
2022-12-08T02:59:23.474Z,13.63
2022-12-08T03:02:43.632Z,13.51
2022-12-08T03:06:10.189Z,13.37
2022-12-08T03:09:39.146Z,13.35
2022-12-08T03:12:49.797Z,13.38
2022-12-08T03:15:57.162Z,13.67
2022-12-08T03:19:13.652Z,13.80
2022-12-08T03:22:20.051Z,13.54
2022-12-08T03:25:24.633Z,13.47
2022-12-08T03:28:28.922Z,13.43
2022-12-08T03:31:36.047Z,13.19
2022-12-08T03:34:42.504Z,13.31
2022-12-08T03:37:44.554Z,13.29
2022-12-08T03:41:09.563Z,13.36
2022-12-08T03:44:11.905Z,13.52
2022-12-08T03:47:14.023Z,13.44
2022-12-08T03:50:16.389Z,13.73
2022-12-08T03:53:18.590Z,13.85
2022-12-08T03:56:36.968Z,13.90
2022-12-08T03:59:40.775Z,13.90
2022-12-08T04:02:43.643Z,13.83
2022-12-08T04:05:46.080Z,13.69
2022-12-08T04:08:48.896Z,13.85
2022-12-08T04:11:51.495Z,13.78
2022-12-08T04:14:53.567Z,13.77
2022-12-08T04:17:56.010Z,13.79
2022-12-08T04:20:58.155Z,13.70
2022-12-08T04:24:01.519Z,13.60
2022-12-08T04:27:05.975Z,13.70
2022-12-08T04:30:09.429Z,13.82
2022-12-08T04:33:12.084Z,13.85
2022-12-08T04:36:18.972Z,13.96
2022-12-08T04:39:21.307Z,13.92
2022-12-08T04:42:23.297Z,13.73
2022-12-08T04:45:25.551Z,13.49
2022-12-08T04:48:27.722Z,13.40
2022-12-08T04:51:31.153Z,13.46
2022-12-08T04:54:33.377Z,13.25
2022-12-08T04:57:35.497Z,13.21
2022-12-08T05:00:37.831Z,13.24
2022-12-08T05:03:39.940Z,13.26
2022-12-08T05:06:41.972Z,13.13
2022-12-08T05:09:45.031Z,13.19
2022-12-08T05:12:47.051Z,13.02
2022-12-08T05:15:49.297Z,12.96
2022-12-08T05:18:51.386Z,13.00
2022-12-08T05:21:53.418Z,13.01
2022-12-08T05:24:57.024Z,12.88
2022-12-08T05:28:24.609Z,12.86
2022-12-08T05:31:21.530Z,13.23
2022-12-08T05:34:23.661Z,13.42
2022-12-08T05:37:25.735Z,13.46
2022-12-08T05:40:27.765Z,13.49
2022-12-08T05:43:29.894Z,13.46
2022-12-08T05:46:32.178Z,13.30
2022-12-08T05:49:34.167Z,13.31
2022-12-08T05:52:36.246Z,12.96
2022-12-08T05:55:38.366Z,13.19
2022-12-08T05:58:40.617Z,13.16
2022-12-08T06:01:42.982Z,13.09
2022-12-08T06:04:45.407Z,13.30
2022-12-08T06:07:47.560Z,13.49
2022-12-08T06:10:49.884Z,13.52
2022-12-08T06:13:52.577Z,13.88
2022-12-08T06:16:54.825Z,14.36
2022-12-08T06:19:56.979Z,14.51
2022-12-08T06:22:59.032Z,13.85
2022-12-08T06:26:02.950Z,13.60
2022-12-08T06:29:05.195Z,13.88
2022-12-08T06:32:07.394Z,14.21
2022-12-08T06:35:09.946Z,14.97
2022-12-08T06:38:12.118Z,14.97
2022-12-08T06:41:14.280Z,14.89
2022-12-08T06:44:16.384Z,14.85
2022-12-08T06:47:22.089Z,16.26
2022-12-08T06:50:26.822Z,18.49
2022-12-08T06:53:28.929Z,17.97
2022-12-08T06:56:31.140Z,17.32
2022-12-08T06:59:33.230Z,17.31
2022-12-08T07:02:35.595Z,17.43
2022-12-08T07:05:41.349Z,16.55
2022-12-08T07:08:43.982Z,16.17
2022-12-08T07:11:47.179Z,15.60
2022-12-08T07:14:49.377Z,15.07
2022-12-08T07:17:57.904Z,14.66
2022-12-08T07:21:10.603Z,14.84
2022-12-08T07:24:13.246Z,14.79
2022-12-08T07:27:16.039Z,14.44
2022-12-08T07:30:18.127Z,14.07
2022-12-08T07:33:20.684Z,14.34
2022-12-08T07:36:23.143Z,14.97
2022-12-08T07:39:25.186Z,15.68
2022-12-08T07:42:27.292Z,16.19
2022-12-08T07:45:31.763Z,17.11
2022-12-08T07:48:34.958Z,16.16
2022-12-08T07:51:37.122Z,16.73
2022-12-08T07:54:39.144Z,16.80
2022-12-08T07:57:41.286Z,17.33
2022-12-08T08:00:44.347Z,16.68
2022-12-08T08:03:46.439Z,17.10
2022-12-08T08:06:48.538Z,17.88
2022-12-08T08:09:50.799Z,17.65
2022-12-08T08:12:53.257Z,17.02
2022-12-08T08:15:55.454Z,17.59
2022-12-08T08:18:57.753Z,17.88
2022-12-08T08:21:59.805Z,17.64
2022-12-08T08:25:01.949Z,17.46
2022-12-08T08:28:04.212Z,18.01
2022-12-08T08:31:07.879Z,18.06
2022-12-08T08:34:10.099Z,17.87
2022-12-08T08:37:12.279Z,17.45
2022-12-08T08:40:14.525Z,18.16
2022-12-08T08:43:34.477Z,17.52
2022-12-08T08:46:40.117Z,17.95
2022-12-08T08:49:42.298Z,17.25
2022-12-08T08:52:45.048Z,17.45
2022-12-08T08:55:47.754Z,17.87
2022-12-08T08:58:50.795Z,18.65
2022-12-08T09:01:53.687Z,18.99
2022-12-08T09:04:56.014Z,18.61
2022-12-08T09:07:58.409Z,19.05
2022-12-08T09:11:00.774Z,19.80
2022-12-08T09:14:03.577Z,20.08
2022-12-08T09:17:08.820Z,19.32
2022-12-08T09:20:11.223Z,19.65
2022-12-08T09:23:13.440Z,19.28
2022-12-08T09:26:15.692Z,19.29
2022-12-08T09:29:17.953Z,19.01
2022-12-08T09:32:20.469Z,19.71
2022-12-08T09:35:22.843Z,19.13
2022-12-08T09:38:25.117Z,19.69
2022-12-08T09:41:41.831Z,20.99
2022-12-08T09:45:15.795Z,20.16
2022-12-08T09:48:23.141Z,19.28
2022-12-08T09:51:27.632Z,18.94
2022-12-08T09:54:35.913Z,18.74
2022-12-08T09:57:38.348Z,18.57
2022-12-08T10:00:40.491Z,18.36
2022-12-08T10:03:45.504Z,18.48
2022-12-08T10:07:08.714Z,18.33
2022-12-08T10:10:26.689Z,17.99
2022-12-08T10:13:51.915Z,19.12
2022-12-08T10:17:04.049Z,20.08
2022-12-08T10:20:36.061Z,20.60
2022-12-08T10:23:41.199Z,20.82
2022-12-08T10:26:43.474Z,20.52
2022-12-08T10:29:45.698Z,20.41
2022-12-08T10:32:53.532Z,20.44
2022-12-08T10:35:59.303Z,21.08
2022-12-08T10:39:01.598Z,21.11
2022-12-08T10:42:08.825Z,21.08
2022-12-08T10:45:10.814Z,21.00
2022-12-08T10:48:30.801Z,20.91
2022-12-08T10:51:41.365Z,20.84
2022-12-08T10:54:50.227Z,20.04
2022-12-08T10:57:53.252Z,18.58
2022-12-08T11:04:26.212Z,17.36
2022-12-08T11:07:30.605Z,17.04
2022-12-08T11:10:40.580Z,17.12
2022-12-08T11:13:43.383Z,16.93
2022-12-08T11:16:45.911Z,16.78
2022-12-08T11:20:10.375Z,16.85
2022-12-08T11:23:24.878Z,16.96
2022-12-08T11:26:32.881Z,16.83
2022-12-08T11:29:36.039Z,16.60
2022-12-08T11:32:41.559Z,16.68
2022-12-08T11:35:47.781Z,16.59
2022-12-08T11:38:55.800Z,16.53
2022-12-08T11:42:00.074Z,16.49
2022-12-08T11:45:15.009Z,16.31
2022-12-08T11:48:19.827Z,16.34
2022-12-08T11:51:30.579Z,16.22
2022-12-08T11:54:32.546Z,16.21
2022-12-08T11:57:35.394Z,16.26
2022-12-08T12:00:37.801Z,16.17
2022-12-08T12:03:44.853Z,16.29
2022-12-08T12:07:19.457Z,16.23
2022-12-08T12:10:40.100Z,16.19
2022-12-08T12:13:54.062Z,16.14
2022-12-08T12:17:05.080Z,16.11
2022-12-08T12:20:24.200Z,16.93
2022-12-08T12:23:56.749Z,18.50
2022-12-08T12:27:20.114Z,19.67
2022-12-08T12:30:28.875Z,18.55
2022-12-08T12:34:05.547Z,17.94
2022-12-08T12:37:13.829Z,18.17
2022-12-08T12:40:22.200Z,17.94
2022-12-08T12:43:39.211Z,17.66
2022-12-08T12:47:02.887Z,18.10
2022-12-08T12:50:07.157Z,18.50
2022-12-08T12:53:19.290Z,18.37
2022-12-08T12:56:55.616Z,18.01
2022-12-08T13:00:00.983Z,18.43
2022-12-08T13:03:13.352Z,18.79
2022-12-08T13:06:32.495Z,18.06
2022-12-08T13:09:40.159Z,17.92
2022-12-08T13:12:45.550Z,17.76
2022-12-08T13:20:21.412Z,18.77
2022-12-08T13:23:41.573Z,19.19
2022-12-08T13:26:49.467Z,18.35
2022-12-08T13:30:51.049Z,18.74
2022-12-08T13:33:57.937Z,18.29
2022-12-08T13:37:14.368Z,18.62
2022-12-08T13:40:24.878Z,18.72
2022-12-08T13:43:47.397Z,18.73
2022-12-08T13:57:55.993Z,18.94
2022-12-08T14:01:24.351Z,18.70
2022-12-08T14:04:54.541Z,19.27
2022-12-08T14:08:07.326Z,18.85
2022-12-08T14:11:33.652Z,18.72
2022-12-08T14:15:14.764Z,19.48
2022-12-08T14:18:28.021Z,18.82
2022-12-08T14:21:35.757Z,18.75
2022-12-08T14:24:39.055Z,18.50
2022-12-08T14:27:43.791Z,18.86
2022-12-08T14:30:48.855Z,18.56
2022-12-08T14:33:56.234Z,18.25
2022-12-08T14:37:00.259Z,18.78
2022-12-08T14:40:29.574Z,19.11
2022-12-08T14:43:32.661Z,18.36
2022-12-08T14:46:34.738Z,18.04
2022-12-08T14:49:39.361Z,18.87
2022-12-08T14:52:44.907Z,18.65
2022-12-08T14:55:48.478Z,18.45
2022-12-08T14:59:06.002Z,18.13
2022-12-08T15:02:19.662Z,19.08
2022-12-08T15:05:26.812Z,19.34
2022-12-08T15:08:29.555Z,18.82
2022-12-08T15:11:34.872Z,18.74
2022-12-08T15:14:41.259Z,19.79
2022-12-08T15:17:44.903Z,18.85
2022-12-08T15:20:55.741Z,18.56
2022-12-08T15:24:00.315Z,18.62
2022-12-08T15:27:09.170Z,19.36
2022-12-08T15:30:15.602Z,18.83
2022-12-08T15:33:18.007Z,18.35
2022-12-08T15:36:20.029Z,18.28
2022-12-08T15:39:27.808Z,19.10
2022-12-08T15:42:30.075Z,18.80
2022-12-08T15:45:32.785Z,18.26
2022-12-08T15:48:34.760Z,18.57
2022-12-08T15:51:37.030Z,19.30
2022-12-08T15:54:42.146Z,18.73
2022-12-08T16:01:14.147Z,18.15
2022-12-08T16:05:11.620Z,18.63
2022-12-08T16:07:44.453Z,18.15
2022-12-08T16:11:29.218Z,18.35
2022-12-08T16:15:01.376Z,18.26
2022-12-08T16:17:32.500Z,18.37
2022-12-08T16:24:17.719Z,18.31
2022-12-08T16:30:46.575Z,19.14
2022-12-08T16:33:48.662Z,18.55
2022-12-08T16:36:52.767Z,18.30
2022-12-08T16:39:58.621Z,18.74
2022-12-08T16:43:01.969Z,18.30
2022-12-08T16:46:04.278Z,18.32
2022-12-08T16:49:09.183Z,18.59
2022-12-08T16:52:11.452Z,18.78
2022-12-08T16:55:17.199Z,18.50
2022-12-08T16:58:19.716Z,18.34
2022-12-08T17:01:26.144Z,18.33
2022-12-08T17:04:31.970Z,19.18
2022-12-08T17:07:35.904Z,18.75
2022-12-08T17:10:39.835Z,18.61
2022-12-08T17:13:42.852Z,18.80
2022-12-08T17:16:59.720Z,19.18
2022-12-08T17:20:30.970Z,18.80
2022-12-08T17:27:52.735Z,20.57
2022-12-08T17:30:54.973Z,21.31
2022-12-08T17:34:02.723Z,20.76
2022-12-08T17:37:06.793Z,19.35
2022-12-08T17:40:09.942Z,18.83
2022-12-08T17:43:13.221Z,18.74
2022-12-08T17:46:22.160Z,18.46
2022-12-08T17:49:26.198Z,18.26
2022-12-08T17:52:38.076Z,18.89
2022-12-08T17:55:41.117Z,19.19
2022-12-08T17:58:46.523Z,18.73
2022-12-08T18:01:53.110Z,18.68
2022-12-08T18:04:55.363Z,18.78
2022-12-08T18:07:58.287Z,19.32
2022-12-08T18:11:04.854Z,18.93
2022-12-08T18:14:12.274Z,18.60
2022-12-08T18:17:15.562Z,18.70
2022-12-08T18:20:18.010Z,18.81
2022-12-08T18:23:20.050Z,18.75
2022-12-08T18:26:22.738Z,18.59
2022-12-08T18:29:25.095Z,18.54
2022-12-08T18:32:27.262Z,18.34
2022-12-08T18:35:29.754Z,18.78
2022-12-08T18:38:48.646Z,18.48
2022-12-08T18:42:23.055Z,18.38
2022-12-08T18:45:25.186Z,18.87
2022-12-08T18:48:27.212Z,18.88
2022-12-08T18:51:29.199Z,18.58
2022-12-08T18:54:50.069Z,18.39
2022-12-08T18:57:57.665Z,18.56
2022-12-08T19:01:00.012Z,19.02
2022-12-08T19:07:26.743Z,18.12
2022-12-08T19:10:29.484Z,18.12
2022-12-08T19:13:31.675Z,19.17
2022-12-08T19:16:34.162Z,19.12
2022-12-08T19:19:36.941Z,18.74
2022-12-08T19:22:39.226Z,18.41
2022-12-08T19:25:41.560Z,19.37
2022-12-08T19:28:43.852Z,18.75
2022-12-08T19:31:47.348Z,18.53
2022-12-08T19:34:56.098Z,18.21
2022-12-08T19:38:07.507Z,19.26
2022-12-08T19:41:28.732Z,18.91
2022-12-08T19:44:52.802Z,18.33
2022-12-08T19:47:55.243Z,18.41
2022-12-08T19:50:57.823Z,18.70
2022-12-08T19:53:59.953Z,18.53
2022-12-08T19:57:02.666Z,18.16
2022-12-08T20:00:06.451Z,18.15
2022-12-08T20:03:20.763Z,18.44
2022-12-08T20:06:27.038Z,19.33
2022-12-08T20:09:29.242Z,19.52
2022-12-08T20:12:31.362Z,18.50
2022-12-08T20:15:33.562Z,18.67
2022-12-08T20:18:39.923Z,19.61
2022-12-08T20:21:42.433Z,19.17
2022-12-08T20:24:46.887Z,18.86
2022-12-08T20:27:51.070Z,18.77
2022-12-08T20:30:53.624Z,19.57
2022-12-08T20:33:56.043Z,19.22
2022-12-08T20:36:59.913Z,18.67
2022-12-08T20:40:02.127Z,18.40
2022-12-08T20:43:04.237Z,18.50
2022-12-08T20:46:07.720Z,18.06
2022-12-08T20:49:09.930Z,17.80
2022-12-08T20:52:13.198Z,17.80
2022-12-08T20:55:15.400Z,17.62
2022-12-08T20:58:17.587Z,17.51
2022-12-08T21:01:23.449Z,17.76
2022-12-08T21:04:26.017Z,17.78
2022-12-08T21:07:28.457Z,17.34
2022-12-08T21:10:30.829Z,17.14
2022-12-08T21:13:33.934Z,17.19
2022-12-08T21:16:36.595Z,17.05
2022-12-08T21:19:39.098Z,16.75
2022-12-08T21:22:41.399Z,16.73
2022-12-08T21:25:46.667Z,16.74
2022-12-08T21:28:50.638Z,16.62
2022-12-08T21:31:53.459Z,16.61
2022-12-08T21:34:56.116Z,16.50
2022-12-08T21:37:58.306Z,16.50
2022-12-08T21:41:05.671Z,16.37
2022-12-08T21:44:11.923Z,16.35
2022-12-08T21:47:14.056Z,16.22
2022-12-08T21:50:18.097Z,16.24
2022-12-08T21:53:21.930Z,16.28
2022-12-08T21:56:25.219Z,16.25
2022-12-08T21:59:52.427Z,16.26
2022-12-08T22:02:54.934Z,16.16
2022-12-08T22:05:57.293Z,16.04
2022-12-08T22:08:59.675Z,16.14
2022-12-08T22:12:02.094Z,15.99
2022-12-08T22:15:08.814Z,16.02
2022-12-08T22:18:11.818Z,16.01
2022-12-08T22:21:17.272Z,15.91
2022-12-08T22:24:19.483Z,15.77
2022-12-08T22:27:22.931Z,15.77
2022-12-08T22:30:27.513Z,15.68
2022-12-08T22:33:30.318Z,15.75
2022-12-08T22:36:32.811Z,15.68
2022-12-08T22:39:36.073Z,15.70
2022-12-08T22:42:38.110Z,15.65
2022-12-08T22:45:40.266Z,15.69
2022-12-08T22:48:43.232Z,15.61
2022-12-08T22:51:45.728Z,15.54
2022-12-08T22:54:48.881Z,15.47
2022-12-08T22:57:51.123Z,15.68
2022-12-08T23:00:53.307Z,15.51
2022-12-08T23:03:56.062Z,15.61
2022-12-08T23:06:58.488Z,15.44
2022-12-08T23:10:00.544Z,15.39
2022-12-08T23:13:04.202Z,15.36
2022-12-08T23:16:10.340Z,15.28
2022-12-08T23:19:12.870Z,15.35
2022-12-08T23:22:15.125Z,15.29
2022-12-08T23:25:18.629Z,15.17
2022-12-08T23:28:20.770Z,15.26
2022-12-08T23:31:23.599Z,15.12
2022-12-08T23:34:25.930Z,15.21
2022-12-08T23:37:30.005Z,15.31
2022-12-08T23:40:32.361Z,15.12
2022-12-08T23:43:35.416Z,15.17
2022-12-08T23:46:37.847Z,14.96
2022-12-08T23:49:40.026Z,15.08
2022-12-08T23:52:42.146Z,14.99
2022-12-08T23:56:13.287Z,14.97
2022-12-08T23:59:16.561Z,14.84
